sensor_id;sensor_type;location;lat;lon;timestamp;pressure;altitude;pressure_sealevel;temperature;humidity
39739;BME280;25422;48.286;8.484;2024-03-02T00:00:07;92905.88;;;3.07;100.00
39739;BME280;25422;48.286;8.484;2024-03-02T00:02:43;92910.03;;;2.99;100.00
39739;BME280;25422;48.286;8.484;2024-03-02T00:05:13;92919.38;;;2.92;100.00
39739;BME280;25422;48.286;8.484;2024-03-02T00:07:44;92919.28;;;2.76;100.00
39739;BME280;25422;48.286;8.484;2024-03-02T00:10:11;92917.94;;;2.63;100.00
39739;BME280;25422;48.286;8.484;2024-03-02T00:12:39;92917.88;;;2.55;100.00
39739;BME280;25422;48.286;8.484;2024-03-02T00:15:07;92912.72;;;2.55;100.00
39739;BME280;25422;48.286;8.484;2024-03-02T00:17:45;92910.06;;;2.47;100.00
39739;BME280;25422;48.286;8.484;2024-03-02T00:20:16;92906.31;;;2.41;100.00
39739;BME280;25422;48.286;8.484;2024-03-02T00:22:43;92917.41;;;2.33;100.00
39739;BME280;25422;48.286;8.484;2024-03-02T00:25:08;92912.00;;;2.18;100.00
39739;BME280;25422;48.286;8.484;2024-03-02T00:27:35;92915.09;;;2.04;100.00
39739;BME280;25422;48.286;8.484;2024-03-02T00:30:41;92917.16;;;2.00;100.00
39739;BME280;25422;48.286;8.484;2024-03-02T00:32:51;92911.34;;;1.98;100.00
39739;BME280;25422;48.286;8.484;2024-03-02T00:35:19;92917.63;;;1.96;100.00
39739;BME280;25422;48.286;8.484;2024-03-02T00:37:46;92904.72;;;1.96;100.00
39739;BME280;25422;48.286;8.484;2024-03-02T00:40:11;92914.06;;;1.97;100.00
39739;BME280;25422;48.286;8.484;2024-03-02T00:42:38;92914.50;;;1.92;100.00
39739;BME280;25422;48.286;8.484;2024-03-02T00:45:07;92915.19;;;1.94;100.00
39739;BME280;25422;48.286;8.484;2024-03-02T00:47:38;92918.41;;;1.96;100.00
39739;BME280;25422;48.286;8.484;2024-03-02T00:50:05;92912.59;;;1.94;100.00
39739;BME280;25422;48.286;8.484;2024-03-02T00:52:31;92909.50;;;1.91;100.00
39739;BME280;25422;48.286;8.484;2024-03-02T00:54:58;92909.34;;;1.92;100.00
39739;BME280;25422;48.286;8.484;2024-03-02T00:57:24;92907.13;;;1.97;100.00
39739;BME280;25422;48.286;8.484;2024-03-02T00:59:51;92907.50;;;2.02;100.00
39739;BME280;25422;48.286;8.484;2024-03-02T01:02:17;92905.88;;;2.01;100.00
39739;BME280;25422;48.286;8.484;2024-03-02T01:04:42;92906.19;;;1.98;100.00
39739;BME280;25422;48.286;8.484;2024-03-02T01:07:08;92909.25;;;2.02;100.00
39739;BME280;25422;48.286;8.484;2024-03-02T01:09:33;92904.72;;;1.96;100.00
39739;BME280;25422;48.286;8.484;2024-03-02T01:11:58;92902.56;;;1.91;100.00
39739;BME280;25422;48.286;8.484;2024-03-02T01:14:24;92902.50;;;1.83;100.00
39739;BME280;25422;48.286;8.484;2024-03-02T01:16:49;92895.13;;;1.88;100.00
39739;BME280;25422;48.286;8.484;2024-03-02T01:19:15;92893.97;;;1.82;100.00
39739;BME280;25422;48.286;8.484;2024-03-02T01:21:40;92896.00;;;1.79;100.00
39739;BME280;25422;48.286;8.484;2024-03-02T01:24:06;92898.31;;;1.82;100.00
39739;BME280;25422;48.286;8.484;2024-03-02T01:26:31;92895.38;;;1.77;100.00
39739;BME280;25422;48.286;8.484;2024-03-02T01:28:56;92897.44;;;1.55;100.00
39739;BME280;25422;48.286;8.484;2024-03-02T01:31:22;92899.22;;;1.27;100.00
39739;BME280;25422;48.286;8.484;2024-03-02T01:33:47;92897.88;;;1.05;100.00
39739;BME280;25422;48.286;8.484;2024-03-02T01:36:13;92898.00;;;1.03;100.00
39739;BME280;25422;48.286;8.484;2024-03-02T01:38:38;92898.88;;;0.94;100.00
39739;BME280;25422;48.286;8.484;2024-03-02T01:41:04;92904.03;;;0.94;100.00
39739;BME280;25422;48.286;8.484;2024-03-02T01:43:29;92897.78;;;0.96;100.00
39739;BME280;25422;48.286;8.484;2024-03-02T01:45:55;92903.53;;;1.08;100.00
39739;BME280;25422;48.286;8.484;2024-03-02T01:48:21;92895.66;;;1.10;100.00
39739;BME280;25422;48.286;8.484;2024-03-02T01:50:47;92892.97;;;1.11;100.00
39739;BME280;25422;48.286;8.484;2024-03-02T01:53:12;92899.06;;;1.10;100.00
39739;BME280;25422;48.286;8.484;2024-03-02T01:55:38;92894.19;;;1.07;100.00
39739;BME280;25422;48.286;8.484;2024-03-02T01:58:03;92891.31;;;1.10;100.00
39739;BME280;25422;48.286;8.484;2024-03-02T02:00:29;92887.50;;;1.14;100.00
39739;BME280;25422;48.286;8.484;2024-03-02T02:02:55;92880.16;;;1.20;100.00
39739;BME280;25422;48.286;8.484;2024-03-02T02:05:20;92890.03;;;1.24;100.00
39739;BME280;25422;48.286;8.484;2024-03-02T02:07:46;92890.03;;;1.24;100.00
39739;BME280;25422;48.286;8.484;2024-03-02T02:10:12;92881.75;;;1.21;100.00
39739;BME280;25422;48.286;8.484;2024-03-02T02:12:38;92882.84;;;1.18;100.00
39739;BME280;25422;48.286;8.484;2024-03-02T02:15:30;92878.16;;;1.13;100.00
39739;BME280;25422;48.286;8.484;2024-03-02T02:17:56;92871.53;;;1.11;100.00
39739;BME280;25422;48.286;8.484;2024-03-02T02:20:22;92876.66;;;1.11;100.00
39739;BME280;25422;48.286;8.484;2024-03-02T02:22:56;92877.13;;;1.06;100.00
39739;BME280;25422;48.286;8.484;2024-03-02T02:25:21;92870.47;;;1.04;100.00
39739;BME280;25422;48.286;8.484;2024-03-02T02:27:46;92875.50;;;1.05;100.00
39739;BME280;25422;48.286;8.484;2024-03-02T02:30:12;92866.97;;;1.05;100.00
39739;BME280;25422;48.286;8.484;2024-03-02T02:32:37;92875.63;;;1.04;100.00
39739;BME280;25422;48.286;8.484;2024-03-02T02:35:03;92873.34;;;1.00;100.00
39739;BME280;25422;48.286;8.484;2024-03-02T02:37:30;92879.06;;;0.94;100.00
39739;BME280;25422;48.286;8.484;2024-03-02T02:39:55;92869.72;;;0.93;100.00
39739;BME280;25422;48.286;8.484;2024-03-02T02:42:20;92863.09;;;0.91;100.00
39739;BME280;25422;48.286;8.484;2024-03-02T02:44:46;92857.91;;;1.00;100.00
39739;BME280;25422;48.286;8.484;2024-03-02T02:47:11;92857.31;;;1.07;100.00
39739;BME280;25422;48.286;8.484;2024-03-02T02:49:37;92853.94;;;1.06;100.00
39739;BME280;25422;48.286;8.484;2024-03-02T02:52:02;92851.75;;;1.11;100.00
39739;BME280;25422;48.286;8.484;2024-03-02T02:54:28;92854.66;;;1.16;100.00
39739;BME280;25422;48.286;8.484;2024-03-02T02:56:53;92850.63;;;1.14;100.00
39739;BME280;25422;48.286;8.484;2024-03-02T02:59:18;92861.06;;;1.12;100.00
39739;BME280;25422;48.286;8.484;2024-03-02T03:01:44;92851.88;;;1.10;100.00
39739;BME280;25422;48.286;8.484;2024-03-02T03:04:09;92846.91;;;0.98;100.00
39739;BME280;25422;48.286;8.484;2024-03-02T03:06:35;92853.22;;;0.86;100.00
39739;BME280;25422;48.286;8.484;2024-03-02T03:09:00;92851.81;;;0.74;100.00
39739;BME280;25422;48.286;8.484;2024-03-02T03:11:25;92845.63;;;0.66;100.00
39739;BME280;25422;48.286;8.484;2024-03-02T03:13:52;92849.28;;;0.54;100.00
39739;BME280;25422;48.286;8.484;2024-03-02T03:16:18;92850.03;;;0.46;100.00
39739;BME280;25422;48.286;8.484;2024-03-02T03:18:43;92843.50;;;0.52;100.00
39739;BME280;25422;48.286;8.484;2024-03-02T03:21:08;92845.91;;;0.54;100.00
39739;BME280;25422;48.286;8.484;2024-03-02T03:23:34;92849.03;;;0.57;100.00
39739;BME280;25422;48.286;8.484;2024-03-02T03:25:59;92845.22;;;0.61;100.00
39739;BME280;25422;48.286;8.484;2024-03-02T03:28:25;92846.25;;;0.69;100.00
39739;BME280;25422;48.286;8.484;2024-03-02T03:30:50;92841.59;;;0.82;100.00
39739;BME280;25422;48.286;8.484;2024-03-02T03:33:15;92836.69;;;0.89;100.00
39739;BME280;25422;48.286;8.484;2024-03-02T03:35:41;92846.38;;;0.95;100.00
39739;BME280;25422;48.286;8.484;2024-03-02T03:38:06;92849.78;;;0.95;100.00
39739;BME280;25422;48.286;8.484;2024-03-02T03:40:32;92843.69;;;0.96;100.00
39739;BME280;25422;48.286;8.484;2024-03-02T03:42:57;92848.25;;;1.03;100.00
39739;BME280;25422;48.286;8.484;2024-03-02T03:45:23;92843.25;;;1.01;100.00
39739;BME280;25422;48.286;8.484;2024-03-02T03:47:51;92842.56;;;0.99;100.00
39739;BME280;25422;48.286;8.484;2024-03-02T03:50:16;92845.28;;;0.97;100.00
39739;BME280;25422;48.286;8.484;2024-03-02T03:52:42;92852.06;;;0.98;100.00
39739;BME280;25422;48.286;8.484;2024-03-02T03:55:07;92846.63;;;1.01;100.00
39739;BME280;25422;48.286;8.484;2024-03-02T03:57:33;92852.75;;;1.00;100.00
39739;BME280;25422;48.286;8.484;2024-03-02T03:59:59;92845.97;;;0.99;100.00
39739;BME280;25422;48.286;8.484;2024-03-02T04:02:25;92853.56;;;1.01;100.00
39739;BME280;25422;48.286;8.484;2024-03-02T04:04:51;92855.97;;;1.03;100.00
39739;BME280;25422;48.286;8.484;2024-03-02T04:07:17;92857.91;;;1.00;100.00
39739;BME280;25422;48.286;8.484;2024-03-02T04:09:43;92859.41;;;0.93;100.00
39739;BME280;25422;48.286;8.484;2024-03-02T04:12:08;92857.69;;;0.84;100.00
39739;BME280;25422;48.286;8.484;2024-03-02T04:14:34;92861.66;;;0.78;100.00
39739;BME280;25422;48.286;8.484;2024-03-02T04:16:59;92861.81;;;0.77;100.00
39739;BME280;25422;48.286;8.484;2024-03-02T04:19:25;92862.50;;;0.69;100.00
39739;BME280;25422;48.286;8.484;2024-03-02T04:21:51;92863.75;;;0.65;100.00
39739;BME280;25422;48.286;8.484;2024-03-02T04:24:16;92864.19;;;0.60;100.00
39739;BME280;25422;48.286;8.484;2024-03-02T04:26:42;92866.59;;;0.62;100.00
39739;BME280;25422;48.286;8.484;2024-03-02T04:29:07;92861.47;;;0.62;100.00
39739;BME280;25422;48.286;8.484;2024-03-02T04:31:33;92860.94;;;0.58;100.00
39739;BME280;25422;48.286;8.484;2024-03-02T04:33:58;92867.19;;;0.56;100.00
39739;BME280;25422;48.286;8.484;2024-03-02T04:36:24;92862.84;;;0.56;100.00
39739;BME280;25422;48.286;8.484;2024-03-02T04:38:49;92858.94;;;0.52;100.00
39739;BME280;25422;48.286;8.484;2024-03-02T04:41:15;92861.66;;;0.50;100.00
39739;BME280;25422;48.286;8.484;2024-03-02T04:43:40;92856.50;;;0.50;100.00
39739;BME280;25422;48.286;8.484;2024-03-02T04:46:07;92857.19;;;0.43;100.00
39739;BME280;25422;48.286;8.484;2024-03-02T04:48:32;92865.47;;;0.37;100.00
39739;BME280;25422;48.286;8.484;2024-03-02T04:50:58;92863.47;;;0.30;100.00
39739;BME280;25422;48.286;8.484;2024-03-02T04:53:24;92854.97;;;0.30;100.00
39739;BME280;25422;48.286;8.484;2024-03-02T04:55:49;92868.47;;;0.32;100.00
39739;BME280;25422;48.286;8.484;2024-03-02T04:58:35;92864.13;;;0.32;100.00
39739;BME280;25422;48.286;8.484;2024-03-02T05:01:00;92869.66;;;0.38;100.00
39739;BME280;25422;48.286;8.484;2024-03-02T05:03:26;92868.84;;;0.47;100.00
39739;BME280;25422;48.286;8.484;2024-03-02T05:05:51;92870.59;;;0.46;100.00
39739;BME280;25422;48.286;8.484;2024-03-02T05:08:16;92878.97;;;0.48;100.00
39739;BME280;25422;48.286;8.484;2024-03-02T05:10:42;92877.25;;;0.49;100.00
39739;BME280;25422;48.286;8.484;2024-03-02T05:13:09;92878.56;;;0.53;100.00
39739;BME280;25422;48.286;8.484;2024-03-02T05:15:34;92876.25;;;0.60;100.00
39739;BME280;25422;48.286;8.484;2024-03-02T05:18:00;92893.84;;;0.64;100.00
39739;BME280;25422;48.286;8.484;2024-03-02T05:20:27;92887.06;;;0.63;100.00
39739;BME280;25422;48.286;8.484;2024-03-02T05:22:53;92892.50;;;0.60;100.00
39739;BME280;25422;48.286;8.484;2024-03-02T05:25:18;92893.44;;;0.59;100.00
39739;BME280;25422;48.286;8.484;2024-03-02T05:27:44;92896.16;;;0.58;100.00
39739;BME280;25422;48.286;8.484;2024-03-02T05:30:10;92889.38;;;0.57;100.00
39739;BME280;25422;48.286;8.484;2024-03-02T05:32:35;92901.44;;;0.56;100.00
39739;BME280;25422;48.286;8.484;2024-03-02T05:35:01;92899.03;;;0.55;100.00
39739;BME280;25422;48.286;8.484;2024-03-02T05:37:26;92894.13;;;0.52;100.00
39739;BME280;25422;48.286;8.484;2024-03-02T05:39:51;92899.06;;;0.45;100.00
39739;BME280;25422;48.286;8.484;2024-03-02T05:42:17;92890.38;;;0.46;100.00
39739;BME280;25422;48.286;8.484;2024-03-02T05:44:42;92899.84;;;0.45;100.00
39739;BME280;25422;48.286;8.484;2024-03-02T05:47:08;92902.28;;;0.47;100.00
39739;BME280;25422;48.286;8.484;2024-03-02T05:49:34;92897.94;;;0.47;100.00
39739;BME280;25422;48.286;8.484;2024-03-02T05:52:00;92895.25;;;0.49;100.00
39739;BME280;25422;48.286;8.484;2024-03-02T05:54:25;92896.19;;;0.48;100.00
39739;BME280;25422;48.286;8.484;2024-03-02T05:56:50;92900.41;;;0.49;100.00
39739;BME280;25422;48.286;8.484;2024-03-02T05:59:16;92899.44;;;0.50;100.00
39739;BME280;25422;48.286;8.484;2024-03-02T06:01:43;92893.47;;;0.49;100.00
39739;BME280;25422;48.286;8.484;2024-03-02T06:04:13;92899.56;;;0.48;100.00
39739;BME280;25422;48.286;8.484;2024-03-02T06:06:39;92891.44;;;0.53;100.00
39739;BME280;25422;48.286;8.484;2024-03-02T06:09:05;92885.31;;;0.54;100.00
39739;BME280;25422;48.286;8.484;2024-03-02T06:11:35;92891.44;;;0.53;100.00
39739;BME280;25422;48.286;8.484;2024-03-02T06:14:02;92893.88;;;0.55;100.00
39739;BME280;25422;48.286;8.484;2024-03-02T06:16:27;92897.53;;;0.52;100.00
39739;BME280;25422;48.286;8.484;2024-03-02T06:18:53;92896.06;;;0.49;100.00
39739;BME280;25422;48.286;8.484;2024-03-02T06:21:19;92896.59;;;0.53;100.00
39739;BME280;25422;48.286;8.484;2024-03-02T06:23:45;92904.97;;;0.55;100.00
39739;BME280;25422;48.286;8.484;2024-03-02T06:26:11;92902.09;;;0.58;100.00
39739;BME280;25422;48.286;8.484;2024-03-02T06:28:37;92901.56;;;0.64;100.00
39739;BME280;25422;48.286;8.484;2024-03-02T06:31:02;92897.22;;;0.65;100.00
39739;BME280;25422;48.286;8.484;2024-03-02T06:33:28;92899.66;;;0.66;100.00
39739;BME280;25422;48.286;8.484;2024-03-02T06:35:54;92900.19;;;0.70;100.00
39739;BME280;25422;48.286;8.484;2024-03-02T06:38:19;92903.00;;;0.77;100.00
39739;BME280;25422;48.286;8.484;2024-03-02T06:40:45;92909.47;;;0.81;100.00
39739;BME280;25422;48.286;8.484;2024-03-02T06:43:10;92905.56;;;0.77;100.00
39739;BME280;25422;48.286;8.484;2024-03-02T06:45:36;92913.69;;;0.82;100.00
39739;BME280;25422;48.286;8.484;2024-03-02T06:48:01;92908.53;;;0.82;100.00
39739;BME280;25422;48.286;8.484;2024-03-02T06:50:26;92904.47;;;0.79;100.00
39739;BME280;25422;48.286;8.484;2024-03-02T06:52:52;92898.25;;;0.82;100.00
39739;BME280;25422;48.286;8.484;2024-03-02T06:55:18;92899.28;;;0.89;100.00
39739;BME280;25422;48.286;8.484;2024-03-02T06:57:43;92896.25;;;1.04;100.00
39739;BME280;25422;48.286;8.484;2024-03-02T07:00:09;92893.84;;;1.38;100.00
39739;BME280;25422;48.286;8.484;2024-03-02T07:02:35;92895.75;;;1.82;100.00
39739;BME280;25422;48.286;8.484;2024-03-02T07:05:02;92900.69;;;2.38;100.00
39739;BME280;25422;48.286;8.484;2024-03-02T07:07:27;92902.88;;;2.85;100.00
39739;BME280;25422;48.286;8.484;2024-03-02T07:09:53;92900.13;;;3.29;100.00
39739;BME280;25422;48.286;8.484;2024-03-02T07:12:18;92898.38;;;3.30;100.00
39739;BME280;25422;48.286;8.484;2024-03-02T07:14:43;92901.84;;;3.63;100.00
39739;BME280;25422;48.286;8.484;2024-03-02T07:17:28;92896.38;;;3.83;100.00
39739;BME280;25422;48.286;8.484;2024-03-02T07:19:53;92900.75;;;4.15;100.00
39739;BME280;25422;48.286;8.484;2024-03-02T07:22:19;92903.69;;;4.37;100.00
39739;BME280;25422;48.286;8.484;2024-03-02T07:24:44;92893.47;;;4.19;100.00
39739;BME280;25422;48.286;8.484;2024-03-02T07:27:11;92909.50;;;4.31;100.00
39739;BME280;25422;48.286;8.484;2024-03-02T07:29:38;92899.47;;;4.36;100.00
39739;BME280;25422;48.286;8.484;2024-03-02T07:32:04;92908.34;;;4.42;100.00
39739;BME280;25422;48.286;8.484;2024-03-02T07:34:30;92903.66;;;4.53;100.00
39739;BME280;25422;48.286;8.484;2024-03-02T07:36:55;92916.41;;;4.71;100.00
39739;BME280;25422;48.286;8.484;2024-03-02T07:39:21;92925.50;;;4.59;100.00
39739;BME280;25422;48.286;8.484;2024-03-02T07:41:47;92916.69;;;4.93;100.00
39739;BME280;25422;48.286;8.484;2024-03-02T07:44:12;92919.66;;;4.57;100.00
39739;BME280;25422;48.286;8.484;2024-03-02T07:46:45;92921.19;;;5.07;100.00
39739;BME280;25422;48.286;8.484;2024-03-02T07:49:17;92910.84;;;5.39;100.00
39739;BME280;25422;48.286;8.484;2024-03-02T07:51:43;92913.72;;;5.52;100.00
39739;BME280;25422;48.286;8.484;2024-03-02T07:54:09;92915.78;;;5.57;100.00
39739;BME280;25422;48.286;8.484;2024-03-02T07:56:34;92927.09;;;5.64;100.00
39739;BME280;25422;48.286;8.484;2024-03-02T07:59:01;92926.25;;;6.03;100.00
39739;BME280;25422;48.286;8.484;2024-03-02T08:01:31;92917.84;;;6.24;100.00
39739;BME280;25422;48.286;8.484;2024-03-02T08:04:00;92919.53;;;6.55;100.00
39739;BME280;25422;48.286;8.484;2024-03-02T08:06:27;92919.13;;;6.82;100.00
39739;BME280;25422;48.286;8.484;2024-03-02T08:09:00;92915.06;;;6.64;100.00
39739;BME280;25422;48.286;8.484;2024-03-02T08:11:26;92916.63;;;7.03;100.00
39739;BME280;25422;48.286;8.484;2024-03-02T08:13:56;92918.25;;;7.34;100.00
39739;BME280;25422;48.286;8.484;2024-03-02T08:16:23;92916.63;;;7.33;100.00
39739;BME280;25422;48.286;8.484;2024-03-02T08:18:49;92914.13;;;7.40;100.00
39739;BME280;25422;48.286;8.484;2024-03-02T08:21:15;92915.91;;;7.91;100.00
39739;BME280;25422;48.286;8.484;2024-03-02T08:23:42;92921.03;;;7.84;100.00
39739;BME280;25422;48.286;8.484;2024-03-02T08:26:08;92912.78;;;7.81;100.00
39739;BME280;25422;48.286;8.484;2024-03-02T08:28:34;92909.91;;;7.75;100.00
39739;BME280;25422;48.286;8.484;2024-03-02T08:30:59;92908.38;;;7.81;100.00
39739;BME280;25422;48.286;8.484;2024-03-02T08:33:25;92914.09;;;7.55;100.00
39739;BME280;25422;48.286;8.484;2024-03-02T08:35:50;92911.19;;;8.23;100.00
39739;BME280;25422;48.286;8.484;2024-03-02T08:38:16;92902.66;;;8.51;100.00
39739;BME280;25422;48.286;8.484;2024-03-02T08:40:42;92912.25;;;9.00;100.00
39739;BME280;25422;48.286;8.484;2024-03-02T08:43:07;92910.03;;;8.69;100.00
39739;BME280;25422;48.286;8.484;2024-03-02T08:45:33;92902.97;;;8.19;100.00
39739;BME280;25422;48.286;8.484;2024-03-02T08:47:59;92907.94;;;8.36;100.00
39739;BME280;25422;48.286;8.484;2024-03-02T08:50:25;92905.13;;;7.94;100.00
39739;BME280;25422;48.286;8.484;2024-03-02T08:52:50;92903.63;;;8.06;100.00
39739;BME280;25422;48.286;8.484;2024-03-02T08:55:16;92895.09;;;8.13;100.00
39739;BME280;25422;48.286;8.484;2024-03-02T08:57:41;92903.91;;;8.55;100.00
39739;BME280;25422;48.286;8.484;2024-03-02T09:00:07;92893.66;;;8.82;100.00
39739;BME280;25422;48.286;8.484;2024-03-02T09:02:33;92890.06;;;9.59;100.00
39739;BME280;25422;48.286;8.484;2024-03-02T09:04:59;92891.56;;;9.82;100.00
39739;BME280;25422;48.286;8.484;2024-03-02T09:07:25;92891.78;;;9.39;100.00
39739;BME280;25422;48.286;8.484;2024-03-02T09:09:50;92894.53;;;9.24;100.00
39739;BME280;25422;48.286;8.484;2024-03-02T09:12:15;92896.81;;;9.95;100.00
39739;BME280;25422;48.286;8.484;2024-03-02T09:14:41;92902.28;;;10.21;100.00
39739;BME280;25422;48.286;8.484;2024-03-02T09:17:06;92903.50;;;10.25;100.00
39739;BME280;25422;48.286;8.484;2024-03-02T09:19:33;92899.56;;;10.49;100.00
39739;BME280;25422;48.286;8.484;2024-03-02T09:21:58;92890.59;;;10.03;100.00
39739;BME280;25422;48.286;8.484;2024-03-02T09:24:24;92890.59;;;10.03;100.00
39739;BME280;25422;48.286;8.484;2024-03-02T09:26:49;92886.13;;;9.77;100.00
39739;BME280;25422;48.286;8.484;2024-03-02T09:29:15;92873.59;;;9.59;100.00
39739;BME280;25422;48.286;8.484;2024-03-02T09:31:41;92878.97;;;9.02;100.00
39739;BME280;25422;48.286;8.484;2024-03-02T09:34:07;92878.59;;;9.54;100.00
39739;BME280;25422;48.286;8.484;2024-03-02T09:36:33;92880.38;;;9.05;100.00
39739;BME280;25422;48.286;8.484;2024-03-02T09:38:58;92878.22;;;9.15;100.00
39739;BME280;25422;48.286;8.484;2024-03-02T09:41:24;92880.53;;;9.03;100.00
39739;BME280;25422;48.286;8.484;2024-03-02T09:43:50;92877.03;;;9.18;100.00
39739;BME280;25422;48.286;8.484;2024-03-02T09:46:15;92869.78;;;9.61;100.00
39739;BME280;25422;48.286;8.484;2024-03-02T09:48:41;92874.13;;;9.96;100.00
39739;BME280;25422;48.286;8.484;2024-03-02T09:51:07;92863.69;;;10.09;100.00
39739;BME280;25422;48.286;8.484;2024-03-02T09:53:34;92870.81;;;9.74;100.00
39739;BME280;25422;48.286;8.484;2024-03-02T09:56:00;92862.66;;;9.90;100.00
39739;BME280;25422;48.286;8.484;2024-03-02T09:58:25;92856.38;;;9.85;100.00
39739;BME280;25422;48.286;8.484;2024-03-02T10:00:51;92859.72;;;9.52;100.00
39739;BME280;25422;48.286;8.484;2024-03-02T10:03:18;92861.91;;;9.55;100.00
39739;BME280;25422;48.286;8.484;2024-03-02T10:05:44;92858.59;;;9.81;100.00
39739;BME280;25422;48.286;8.484;2024-03-02T10:08:09;92863.97;;;9.59;100.00
39739;BME280;25422;48.286;8.484;2024-03-02T10:10:39;92859.81;;;9.85;100.00
39739;BME280;25422;48.286;8.484;2024-03-02T10:13:10;92852.03;;;10.12;100.00
39739;BME280;25422;48.286;8.484;2024-03-02T10:15:36;92850.78;;;9.88;100.00
39739;BME280;25422;48.286;8.484;2024-03-02T10:18:08;92859.88;;;10.19;100.00
39739;BME280;25422;48.286;8.484;2024-03-02T10:20:34;92854.97;;;9.89;100.00
39739;BME280;25422;48.286;8.484;2024-03-02T10:23:13;92846.44;;;9.47;100.00
39739;BME280;25422;48.286;8.484;2024-03-02T10:25:39;92852.91;;;9.57;100.00
39739;BME280;25422;48.286;8.484;2024-03-02T10:28:05;92851.03;;;9.38;100.00
39739;BME280;25422;48.286;8.484;2024-03-02T10:30:31;92849.84;;;9.40;100.00
39739;BME280;25422;48.286;8.484;2024-03-02T10:32:57;92847.06;;;9.49;100.00
39739;BME280;25422;48.286;8.484;2024-03-02T10:35:22;92841.09;;;9.75;100.00
39739;BME280;25422;48.286;8.484;2024-03-02T10:37:52;92836.06;;;9.73;100.00
39739;BME280;25422;48.286;8.484;2024-03-02T10:40:18;92838.78;;;10.27;100.00
39739;BME280;25422;48.286;8.484;2024-03-02T10:42:46;92839.72;;;9.92;100.00
39739;BME280;25422;48.286;8.484;2024-03-02T10:45:15;92840.97;;;10.77;100.00
39739;BME280;25422;48.286;8.484;2024-03-02T10:47:42;92838.31;;;11.10;100.00
39739;BME280;25422;48.286;8.484;2024-03-02T10:50:08;92833.09;;;11.04;100.00
39739;BME280;25422;48.286;8.484;2024-03-02T10:52:35;92837.50;;;11.17;99.97
39739;BME280;25422;48.286;8.484;2024-03-02T10:55:00;92830.59;;;11.36;93.42
39739;BME280;25422;48.286;8.484;2024-03-02T10:57:26;92829.09;;;11.60;93.68
39739;BME280;25422;48.286;8.484;2024-03-02T11:00:02;92824.94;;;11.32;88.34
39739;BME280;25422;48.286;8.484;2024-03-02T11:02:30;92814.84;;;11.42;81.94
39739;BME280;25422;48.286;8.484;2024-03-02T11:04:56;92816.88;;;11.34;93.03
39739;BME280;25422;48.286;8.484;2024-03-02T11:07:26;92808.97;;;11.47;93.45
39739;BME280;25422;48.286;8.484;2024-03-02T11:09:59;92811.53;;;11.15;93.18
39739;BME280;25422;48.286;8.484;2024-03-02T11:12:29;92805.34;;;11.48;90.50
39739;BME280;25422;48.286;8.484;2024-03-02T11:14:58;92799.88;;;11.56;82.53
39739;BME280;25422;48.286;8.484;2024-03-02T11:17:25;92802.03;;;11.27;82.50
39739;BME280;25422;48.286;8.484;2024-03-02T11:19:51;92807.53;;;11.58;79.01
39739;BME280;25422;48.286;8.484;2024-03-02T11:22:18;92793.91;;;12.38;72.95
39739;BME280;25422;48.286;8.484;2024-03-02T11:24:52;92801.53;;;12.21;74.44
39739;BME280;25422;48.286;8.484;2024-03-02T11:27:58;92796.97;;;12.35;69.99
39739;BME280;25422;48.286;8.484;2024-03-02T11:33:06;92796.63;;;12.75;73.21
39739;BME280;25422;48.286;8.484;2024-03-02T11:35:43;92798.72;;;13.10;63.01
39739;BME280;25422;48.286;8.484;2024-03-02T11:38:10;92793.75;;;13.39;62.07
39739;BME280;25422;48.286;8.484;2024-03-02T11:40:39;92790.75;;;13.85;62.75
39739;BME280;25422;48.286;8.484;2024-03-02T11:43:05;92789.34;;;14.12;60.19
39739;BME280;25422;48.286;8.484;2024-03-02T11:45:31;92778.16;;;14.17;61.18
39739;BME280;25422;48.286;8.484;2024-03-02T11:47:59;92783.69;;;13.97;57.61
39739;BME280;25422;48.286;8.484;2024-03-02T11:50:34;92773.31;;;14.02;53.66
39739;BME280;25422;48.286;8.484;2024-03-02T11:53:00;92771.66;;;14.55;56.72
39739;BME280;25422;48.286;8.484;2024-03-02T11:55:26;92769.25;;;15.65;52.87
39739;BME280;25422;48.286;8.484;2024-03-02T11:57:52;92766.78;;;16.05;51.71
39739;BME280;25422;48.286;8.484;2024-03-02T12:00:21;92768.94;;;16.54;50.42
39739;BME280;25422;48.286;8.484;2024-03-02T12:03:09;92767.75;;;17.17;48.82
39739;BME280;25422;48.286;8.484;2024-03-02T12:05:35;92752.34;;;16.07;46.39
39739;BME280;25422;48.286;8.484;2024-03-02T12:08:05;92757.38;;;17.82;42.91
39739;BME280;25422;48.286;8.484;2024-03-02T12:10:36;92755.06;;;17.19;42.49
39739;BME280;25422;48.286;8.484;2024-03-02T12:13:03;92752.28;;;17.53;42.58
39739;BME280;25422;48.286;8.484;2024-03-02T12:15:31;92749.38;;;17.50;42.90
39739;BME280;25422;48.286;8.484;2024-03-02T12:17:58;92753.06;;;16.19;45.34
39739;BME280;25422;48.286;8.484;2024-03-02T12:20:25;92740.75;;;15.79;46.70
39739;BME280;25422;48.286;8.484;2024-03-02T12:22:52;92745.16;;;16.37;45.18
39739;BME280;25422;48.286;8.484;2024-03-02T12:25:22;92742.44;;;16.31;44.08
39739;BME280;25422;48.286;8.484;2024-03-02T12:27:56;92737.66;;;16.84;45.35
39739;BME280;25422;48.286;8.484;2024-03-02T12:30:23;92729.38;;;16.76;45.24
39739;BME280;25422;48.286;8.484;2024-03-02T12:32:49;92732.03;;;17.37;44.61
39739;BME280;25422;48.286;8.484;2024-03-02T12:35:15;92729.41;;;16.42;45.38
39739;BME280;25422;48.286;8.484;2024-03-02T12:37:44;92730.84;;;16.89;43.14
39739;BME280;25422;48.286;8.484;2024-03-02T12:40:14;92727.31;;;17.39;42.83
39739;BME280;25422;48.286;8.484;2024-03-02T12:42:40;92725.88;;;18.03;43.13
39739;BME280;25422;48.286;8.484;2024-03-02T12:45:08;92723.63;;;18.60;40.54
39739;BME280;25422;48.286;8.484;2024-03-02T12:47:34;92724.50;;;18.65;40.24
39739;BME280;25422;48.286;8.484;2024-03-02T12:50:01;92725.22;;;17.68;41.34
39739;BME280;25422;48.286;8.484;2024-03-02T12:52:26;92718.84;;;16.98;41.62
39739;BME280;25422;48.286;8.484;2024-03-02T12:54:52;92717.84;;;17.70;40.25
39739;BME280;25422;48.286;8.484;2024-03-02T12:57:21;92718.69;;;16.48;42.98
39739;BME280;25422;48.286;8.484;2024-03-02T12:59:47;92709.09;;;16.42;43.03